ISR248 LOWS-LLBG
Flight info
| Callsign | ISR248 |
|---|---|
| Flight time | N/A |
| Altitude | 35000 |
| Route | VERDA DCT DIPSA DCT PODET DCT LURID DCT DOBOT DCT PESAK DCT VABEK UL603 OLOTA DCT DISOR DCT KOROS/N0449F370 DCT MES UL609 ALKIS L609 APLON DCT PIKOG L609 ZUKKO |
| Aircraft | A320/M-SDE2FGHIJ1LORVWY/SB1 |
Departure
| Time | N/A |
|---|---|
| Airport | Salzburg Airport (LOWS) |
Arrival
| Time | 2026-05-03 21:01 |
|---|---|
| Airport | Ben Gurion International Airport (LLBG) |
| Time | Latitude | Longitude | Altitude | Speed | Heading |
|---|---|---|---|---|---|
| 2026-05-03 20:15 | 35.50349 | 29.49963 | 36810 ft | 491 kts | 130° |
| 2026-05-03 20:15 | 35.46277 | 29.56710 | 36804 ft | 492 kts | 130° |
| 2026-05-03 20:16 | 35.42199 | 29.63451 | 36829 ft | 493 kts | 130° |
| 2026-05-03 20:16 | 35.38119 | 29.70197 | 36835 ft | 493 kts | 130° |
| 2026-05-03 20:17 | 35.34033 | 29.76940 | 36838 ft | 493 kts | 130° |
| 2026-05-03 20:17 | 35.29947 | 29.83672 | 36826 ft | 492 kts | 131° |
| 2026-05-03 20:18 | 35.25851 | 29.90385 | 36846 ft | 492 kts | 131° |
| 2026-05-03 20:18 | 35.21762 | 29.97087 | 36857 ft | 492 kts | 131° |
| 2026-05-03 20:19 | 35.18345 | 30.02639 | 36859 ft | 491 kts | 132° |
| 2026-05-03 20:19 | 35.14103 | 30.09164 | 36860 ft | 490 kts | 134° |
| 2026-05-03 20:20 | 35.09797 | 30.15615 | 36826 ft | 490 kts | 134° |
| 2026-05-03 20:20 | 35.05512 | 30.22089 | 36846 ft | 491 kts | 134° |
| 2026-05-03 20:21 | 35.01250 | 30.28602 | 36862 ft | 491 kts | 134° |
| 2026-05-03 20:21 | 34.96984 | 30.35109 | 36882 ft | 491 kts | 134° |
| 2026-05-03 20:22 | 34.92702 | 30.41604 | 36868 ft | 491 kts | 134° |
| 2026-05-03 20:22 | 34.88417 | 30.48081 | 36886 ft | 490 kts | 134° |
| 2026-05-03 20:23 | 34.84144 | 30.54545 | 36891 ft | 490 kts | 134° |
| 2026-05-03 20:23 | 34.79876 | 30.60993 | 36889 ft | 489 kts | 134° |
| 2026-05-03 20:24 | 34.75609 | 30.67433 | 36899 ft | 489 kts | 135° |
| 2026-05-03 20:24 | 34.71330 | 30.73863 | 36870 ft | 489 kts | 135° |
| 2026-05-03 20:25 | 34.67033 | 30.80285 | 36875 ft | 490 kts | 135° |
| 2026-05-03 20:25 | 34.62734 | 30.86709 | 36889 ft | 490 kts | 135° |
| 2026-05-03 20:26 | 34.58481 | 30.93202 | 36895 ft | 492 kts | 133° |
| 2026-05-03 20:26 | 34.54379 | 30.99870 | 36878 ft | 494 kts | 133° |
| 2026-05-03 20:27 | 34.50290 | 31.06564 | 36906 ft | 494 kts | 133° |
| 2026-05-03 20:27 | 34.46147 | 31.13197 | 36917 ft | 493 kts | 134° |
| 2026-05-03 20:28 | 34.41973 | 31.19797 | 36925 ft | 493 kts | 134° |
| 2026-05-03 20:28 | 34.37804 | 31.26395 | 36918 ft | 493 kts | 134° |
| 2026-05-03 20:29 | 34.33640 | 31.32998 | 36879 ft | 493 kts | 134° |
| 2026-05-03 20:29 | 34.29477 | 31.39599 | 36901 ft | 494 kts | 134° |
| 2026-05-03 20:30 | 34.25299 | 31.46206 | 36910 ft | 495 kts | 134° |
| 2026-05-03 20:30 | 34.21112 | 31.52814 | 36903 ft | 495 kts | 135° |
| 2026-05-03 20:31 | 34.16946 | 31.59369 | 36931 ft | 495 kts | 135° |
| 2026-05-03 20:31 | 34.12751 | 31.65955 | 36944 ft | 495 kts | 135° |
| 2026-05-03 20:32 | 34.08559 | 31.72536 | 36947 ft | 494 kts | 135° |
| 2026-05-03 20:32 | 34.04364 | 31.79105 | 36951 ft | 494 kts | 135° |
| 2026-05-03 20:33 | 34.00164 | 31.85657 | 36953 ft | 494 kts | 135° |
| 2026-05-03 20:33 | 33.95965 | 31.92201 | 36960 ft | 494 kts | 135° |
| 2026-05-03 20:34 | 33.91771 | 31.98743 | 36961 ft | 493 kts | 135° |
| 2026-05-03 20:34 | 33.87572 | 32.05271 | 36962 ft | 493 kts | 135° |
| 2026-05-03 20:35 | 33.83352 | 32.11771 | 36953 ft | 493 kts | 136° |
| 2026-05-03 20:35 | 33.79106 | 32.18233 | 36966 ft | 492 kts | 136° |
| 2026-05-03 20:36 | 33.74855 | 32.24684 | 36975 ft | 492 kts | 136° |
| 2026-05-03 20:36 | 33.70606 | 32.31130 | 36986 ft | 492 kts | 136° |
| 2026-05-03 20:37 | 33.66362 | 32.37573 | 36960 ft | 492 kts | 137° |
| 2026-05-03 20:37 | 33.62117 | 32.44012 | 36977 ft | 492 kts | 137° |
| 2026-05-03 20:38 | 33.57867 | 32.50438 | 36983 ft | 492 kts | 137° |
| 2026-05-03 20:38 | 33.53612 | 32.56853 | 36952 ft | 491 kts | 137° |
| 2026-05-03 20:39 | 33.49349 | 32.63260 | 36937 ft | 492 kts | 138° |
| 2026-05-03 20:39 | 33.45081 | 32.69664 | 36966 ft | 492 kts | 138° |
| 2026-05-03 20:40 | 33.40815 | 32.76068 | 36982 ft | 492 kts | 138° |
| 2026-05-03 20:40 | 33.36573 | 32.82420 | 36996 ft | 492 kts | 138° |
| 2026-05-03 20:41 | 33.32302 | 32.88820 | 37003 ft | 492 kts | 138° |
| 2026-05-03 20:41 | 33.28031 | 32.95209 | 36989 ft | 492 kts | 138° |
| 2026-05-03 20:42 | 33.23757 | 33.01580 | 37000 ft | 491 kts | 138° |
| 2026-05-03 20:42 | 33.21613 | 33.04762 | 36895 ft | 492 kts | 138° |
| 2026-05-03 20:42 | 33.19457 | 33.07959 | 36109 ft | 498 kts | 139° |
| 2026-05-03 20:42 | 33.17266 | 33.11194 | 35249 ft | 504 kts | 139° |
| 2026-05-03 20:43 | 33.15047 | 33.14470 | 34393 ft | 511 kts | 139° |
| 2026-05-03 20:43 | 33.12805 | 33.17790 | 33340 ft | 517 kts | 139° |
| 2026-05-03 20:43 | 33.10541 | 33.21147 | 32541 ft | 518 kts | 139° |
| 2026-05-03 20:43 | 33.08301 | 33.24484 | 31949 ft | 514 kts | 139° |
| 2026-05-03 20:44 | 33.06070 | 33.27806 | 31235 ft | 513 kts | 139° |
| 2026-05-03 20:44 | 33.03839 | 33.31121 | 30451 ft | 513 kts | 139° |
| 2026-05-03 20:44 | 33.01603 | 33.34434 | 29579 ft | 513 kts | 139° |
| 2026-05-03 20:44 | 32.99360 | 33.37746 | 28610 ft | 514 kts | 138° |
| 2026-05-03 20:45 | 32.97115 | 33.41054 | 27628 ft | 514 kts | 138° |
| 2026-05-03 20:45 | 32.94867 | 33.44361 | 26651 ft | 514 kts | 138° |
| 2026-05-03 20:45 | 32.92617 | 33.47665 | 25656 ft | 514 kts | 137° |
| 2026-05-03 20:45 | 32.90365 | 33.50971 | 24652 ft | 514 kts | 137° |
| 2026-05-03 20:46 | 32.88115 | 33.54273 | 23631 ft | 514 kts | 137° |
| 2026-05-03 20:46 | 32.85865 | 33.57578 | 22397 ft | 514 kts | 137° |
| 2026-05-03 20:46 | 32.83630 | 33.60863 | 21530 ft | 505 kts | 136° |
| 2026-05-03 20:46 | 32.81431 | 33.64025 | 21019 ft | 488 kts | 139° |
| 2026-05-03 20:47 | 32.79193 | 33.66993 | 20290 ft | 477 kts | 141° |
| 2026-05-03 20:47 | 32.76911 | 33.69805 | 19509 ft | 469 kts | 143° |
| 2026-05-03 20:47 | 32.74614 | 33.72520 | 18722 ft | 463 kts | 143° |
| 2026-05-03 20:47 | 32.72333 | 33.75188 | 17878 ft | 459 kts | 143° |
| 2026-05-03 20:48 | 32.70076 | 33.77854 | 17106 ft | 456 kts | 142° |
| 2026-05-03 20:48 | 32.67851 | 33.80531 | 16517 ft | 454 kts | 142° |
| 2026-05-03 20:48 | 32.65661 | 33.83213 | 15903 ft | 451 kts | 141° |
| 2026-05-03 20:48 | 32.63501 | 33.85886 | 15269 ft | 447 kts | 141° |
| 2026-05-03 20:49 | 32.61366 | 33.88537 | 14633 ft | 443 kts | 141° |
| 2026-05-03 20:49 | 32.59244 | 33.91162 | 13987 ft | 438 kts | 140° |
| 2026-05-03 20:49 | 32.57142 | 33.93750 | 13277 ft | 434 kts | 140° |
| 2026-05-03 20:49 | 32.55057 | 33.96309 | 12704 ft | 428 kts | 140° |
| 2026-05-03 20:50 | 32.53000 | 33.98854 | 12512 ft | 428 kts | 140° |
| 2026-05-03 20:50 | 32.50952 | 34.01405 | 12217 ft | 426 kts | 140° |
| 2026-05-03 20:50 | 32.48914 | 34.03953 | 11912 ft | 425 kts | 140° |
| 2026-05-03 20:50 | 32.46889 | 34.06487 | 11610 ft | 423 kts | 139° |
| 2026-05-03 20:51 | 32.44873 | 34.09010 | 11301 ft | 421 kts | 139° |
| 2026-05-03 20:51 | 32.42892 | 34.11555 | 11005 ft | 422 kts | 134° |
| 2026-05-03 20:51 | 32.41199 | 34.14406 | 10675 ft | 423 kts | 129° |
| 2026-05-03 20:51 | 32.39553 | 34.17283 | 10341 ft | 421 kts | 129° |
| 2026-05-03 20:52 | 32.37918 | 34.20145 | 10007 ft | 419 kts | 129° |
| 2026-05-03 20:52 | 32.36292 | 34.22988 | 9656 ft | 416 kts | 129° |
| 2026-05-03 20:52 | 32.34678 | 34.25813 | 9324 ft | 413 kts | 129° |
| 2026-05-03 20:52 | 32.33076 | 34.28616 | 9004 ft | 410 kts | 129° |
| 2026-05-03 20:53 | 32.31486 | 34.31395 | 8681 ft | 407 kts | 129° |
| 2026-05-03 20:53 | 32.29898 | 34.34155 | 8354 ft | 405 kts | 129° |
| 2026-05-03 20:53 | 32.28317 | 34.36893 | 8041 ft | 402 kts | 129° |
| 2026-05-03 20:53 | 32.26745 | 34.39611 | 7722 ft | 399 kts | 129° |
| 2026-05-03 20:54 | 32.25187 | 34.42302 | 7405 ft | 392 kts | 129° |
| 2026-05-03 20:54 | 32.22278 | 34.47360 | 7123 ft | 354 kts | 129° |
| 2026-05-03 20:54 | 32.20919 | 34.49715 | 6988 ft | 340 kts | 129° |
| 2026-05-03 20:55 | 32.19601 | 34.51987 | 6596 ft | 336 kts | 129° |
| 2026-05-03 20:55 | 32.18266 | 34.54268 | 5713 ft | 337 kts | 129° |
| 2026-05-03 20:55 | 32.16965 | 34.56496 | 5261 ft | 321 kts | 128° |
| 2026-05-03 20:55 | 32.15766 | 34.58638 | 4934 ft | 305 kts | 126° |
| 2026-05-03 20:56 | 32.14696 | 34.60731 | 4595 ft | 291 kts | 123° |
| 2026-05-03 20:56 | 32.13759 | 34.62789 | 4323 ft | 277 kts | 122° |
| 2026-05-03 20:56 | 32.12826 | 34.64690 | 4169 ft | 258 kts | 124° |
| 2026-05-03 20:56 | 32.11923 | 34.66429 | 3999 ft | 242 kts | 124° |
| 2026-05-03 20:57 | 32.11060 | 34.68087 | 3705 ft | 233 kts | 125° |
| 2026-05-03 20:57 | 32.10226 | 34.69696 | 3407 ft | 226 kts | 124° |
| 2026-05-03 20:57 | 32.09419 | 34.71256 | 3114 ft | 219 kts | 124° |
| 2026-05-03 20:57 | 32.08643 | 34.72756 | 2846 ft | 208 kts | 124° |
| 2026-05-03 20:58 | 32.07905 | 34.74181 | 2539 ft | 199 kts | 123° |
| 2026-05-03 20:58 | 32.07195 | 34.75550 | 2298 ft | 194 kts | 123° |
| 2026-05-03 20:58 | 32.06508 | 34.76877 | 2032 ft | 187 kts | 123° |
| 2026-05-03 20:58 | 32.05836 | 34.78173 | 1769 ft | 183 kts | 123° |
| 2026-05-03 20:59 | 32.05200 | 34.79395 | 1605 ft | 166 kts | 124° |
| 2026-05-03 20:59 | 32.04611 | 34.80524 | 1375 ft | 159 kts | 123° |
| 2026-05-03 20:59 | 32.04042 | 34.81632 | 1121 ft | 155 kts | 123° |
| 2026-05-03 20:59 | 32.03481 | 34.82702 | 923 ft | 153 kts | 124° |
| 2026-05-03 21:00 | 32.02927 | 34.83770 | 725 ft | 153 kts | 124° |
| 2026-05-03 21:00 | 32.02748 | 34.84116 | 670 ft | 152 kts | 124° |
| 2026-05-03 21:00 | 32.01832 | 34.85887 | 316 ft | 150 kts | 124° |
| 2026-05-03 21:00 | 32.01296 | 34.86923 | 132 ft | 150 kts | 125° |
| 2026-05-03 21:01 | 32.00802 | 34.87871 | 120 ft | 116 kts | 122° |
| 2026-05-03 21:01 | 32.00503 | 34.88448 | 120 ft | 43 kts | 123° |
| 2026-05-03 21:01 | 32.00307 | 34.88649 | 117 ft | 25 kts | 152° |
| 2026-05-03 21:01 | 32.00196 | 34.88698 | 119 ft | 17 kts | 166° |
| 2026-05-03 21:02 | 32.00100 | 34.88649 | 120 ft | 18 kts | 266° |
| 2026-05-03 21:02 | 32.00162 | 34.88514 | 119 ft | 20 kts | 301° |
| 2026-05-03 21:02 | 32.00239 | 34.88366 | 115 ft | 22 kts | 301° |
| 2026-05-03 21:02 | 32.00324 | 34.88203 | 118 ft | 24 kts | 301° |
| 2026-05-03 21:03 | 32.00416 | 34.88026 | 116 ft | 26 kts | 302° |
| 2026-05-03 21:03 | 32.00438 | 34.87913 | 117 ft | 12 kts | 223° |
| 2026-05-03 21:03 | 32.00391 | 34.87900 | 117 ft | 7 kts | 145° |
| 2026-05-03 21:03 | 32.00364 | 34.87950 | 117 ft | 6 kts | 121° |
| 2026-05-03 21:04 | 32.00355 | 34.87967 | 117 ft | 1 kts | 122° |
| 2026-05-03 21:04 | 32.00354 | 34.87968 | 117 ft | 0 kts | 122° |